Time;durP1;ratioP1;P1;durP2;ratioP2;P2;SDS_P1;SDS_P2;PMS_P1;PMS_P2;Temp;Humidity;BMP_temperature;BMP_pressure;BME280_temperature;BME280_humidity;BME280_pressure;Samples;Min_cycle;Max_cycle;Signal;HPM_P1;HPM_P2
2023/05/09 00:00:05;;;;;;;18.97;16.33;;;;;;;15.20;100.00;99433.63;4864752;29;20202;-79
2023/05/09 00:02:34;;;;;;;21.97;15.90;;;;;;;15.21;100.00;99430.84;4907578;29;20303;-78
2023/05/09 00:05:04;;;;;;;19.73;15.90;;;;;;;15.24;100.00;99440.41;4911328;29;20213;-78
2023/05/09 00:07:32;;;;;;;18.50;16.40;;;;;;;15.19;100.00;99443.47;4905832;29;20205;-79
2023/05/09 00:10:01;;;;;;;20.27;18.07;;;;;;;15.26;100.00;99433.16;4910345;29;20277;-79
2023/05/09 00:12:29;;;;;;;20.37;16.67;;;;;;;15.31;100.00;99438.97;4913234;29;20193;-78
2023/05/09 00:14:59;;;;;;;19.30;16.53;;;;;;;15.36;100.00;99426.13;4921565;28;20214;-78
2023/05/09 00:17:27;;;;;;;18.03;16.17;;;;;;;15.44;100.00;99429.88;4987067;28;20225;-78
2023/05/09 00:19:56;;;;;;;18.00;16.07;;;;;;;15.40;100.00;99425.75;4984284;28;20257;-78
2023/05/09 00:22:24;;;;;;;17.97;15.03;;;;;;;15.41;100.00;99427.44;4982128;28;20245;-78
2023/05/09 00:24:54;;;;;;;17.20;15.30;;;;;;;15.37;100.00;99415.31;4989118;28;20198;-79
2023/05/09 00:27:22;;;;;;;18.30;16.10;;;;;;;15.42;100.00;99399.75;4988914;28;20191;-78
2023/05/09 00:29:51;;;;;;;17.97;16.07;;;;;;;15.46;100.00;99405.72;4985993;28;20246;-78
2023/05/09 00:32:21;;;;;;;16.77;15.13;;;;;;;15.39;100.00;99407.19;4987775;28;20199;-79
2023/05/09 00:34:50;;;;;;;17.40;15.63;;;;;;;15.44;100.00;99411.19;4985773;28;20202;-79
2023/05/09 00:37:19;;;;;;;16.57;14.73;;;;;;;15.45;100.00;99406.69;4912609;29;20246;-78
2023/05/09 00:39:48;;;;;;;15.37;13.73;;;;;;;15.38;100.00;99400.16;4909942;29;20241;-79
2023/05/09 00:42:18;;;;;;;16.80;15.20;;;;;;;14.96;100.00;99402.59;4910263;29;20234;-78
2023/05/09 00:44:46;;;;;;;17.70;15.57;;;;;;;14.91;100.00;99410.06;4912530;29;20198;-79
2023/05/09 00:47:14;;;;;;;17.50;15.67;;;;;;;14.91;100.00;99403.91;4909809;29;20190;-78
2023/05/09 00:49:44;;;;;;;18.43;15.43;;;;;;;14.88;100.00;99403.19;4911005;29;20197;-77
2023/05/09 00:52:13;;;;;;;17.30;15.50;;;;;;;15.05;100.00;99406.31;4912514;29;20236;-79
2023/05/09 00:54:41;;;;;;;18.30;15.97;;;;;;;15.10;100.00;99391.66;4927391;28;20246;-78
2023/05/09 00:57:09;;;;;;;17.03;15.23;;;;;;;15.16;100.00;99398.34;4984282;28;20262;-79
2023/05/09 00:59:38;;;;;;;17.37;14.33;;;;;;;15.18;100.00;99393.72;4983851;28;20218;-79
2023/05/09 01:02:07;;;;;;;15.63;14.03;;;;;;;15.34;100.00;99388.84;4985630;28;20223;-79
2023/05/09 01:04:35;;;;;;;19.33;15.40;;;;;;;15.28;100.00;99391.19;4985926;28;20306;-79
2023/05/09 01:07:11;;;;;;;17.40;15.60;;;;;;;15.33;100.00;99386.31;4990708;28;20200;-79
2023/05/09 01:09:47;;;;;;;17.53;15.73;;;;;;;15.38;100.00;99379.66;4990474;28;20274;-79
2023/05/09 01:12:26;;;;;;;19.60;15.20;;;;;;;15.40;100.00;99383.03;4988364;28;20215;-78
2023/05/09 01:15:00;;;;;;;17.13;15.33;;;;;;;15.48;100.00;99376.22;4989612;28;20194;-79
2023/05/09 01:17:37;;;;;;;16.97;14.60;;;;;;;15.53;100.00;99372.19;4981838;28;20257;-79
2023/05/09 01:20:14;;;;;;;19.13;15.27;;;;;;;15.58;100.00;99369.19;4992330;28;20202;-79
2023/05/09 01:22:50;;;;;;;18.07;15.37;;;;;;;15.41;100.00;99362.53;4990443;28;20608;-79
2023/05/09 01:25:37;;;;;;;19.53;15.60;;;;;;;15.32;100.00;99360.59;4987928;28;20230;-79
2023/05/09 01:28:14;;;;;;;16.57;14.87;;;;;;;15.30;100.00;99362.53;4930636;29;20205;-78
2023/05/09 01:30:48;;;;;;;18.47;16.47;;;;;;;15.25;100.00;99357.59;4930759;29;20228;-79
2023/05/09 01:33:19;;;;;;;17.87;15.80;;;;;;;15.30;100.00;99352.72;4930808;29;20248;-78
2023/05/09 01:35:52;;;;;;;17.77;16.00;;;;;;;15.31;100.00;99356.22;4930686;29;20205;-79
2023/05/09 01:38:23;;;;;;;17.80;15.93;;;;;;;15.23;100.00;99353.31;4925915;29;20205;-79
2023/05/09 01:40:54;;;;;;;16.73;15.03;;;;;;;15.27;100.00;99350.31;4929615;29;20209;-79
2023/05/09 01:43:25;;;;;;;17.53;15.73;;;;;;;15.36;100.00;99354.06;4927014;29;20198;-78
2023/05/09 01:45:56;;;;;;;19.20;15.67;;;;;;;15.21;100.00;99353.44;4931365;29;20208;-79
2023/05/09 01:48:26;;;;;;;18.37;15.40;;;;;;;15.27;100.00;99357.47;4930718;29;20200;-79
2023/05/09 01:50:56;;;;;;;20.17;15.63;;;;;;;15.23;100.00;99359.50;4933014;29;20216;-79
2023/05/09 01:53:26;;;;;;;18.90;15.57;;;;;;;15.20;100.00;99359.75;4978435;28;20191;-78
2023/05/09 01:55:56;;;;;;;17.27;15.37;;;;;;;15.16;100.00;99352.97;4987633;28;20207;-78
2023/05/09 01:58:27;;;;;;;21.80;16.47;;;;;;;15.19;100.00;99350.06;4997004;28;20655;-79
2023/05/09 02:00:57;;;;;;;19.40;15.20;;;;;;;15.26;100.00;99353.09;4987707;28;20297;-79
2023/05/09 02:03:26;;;;;;;17.97;15.63;;;;;;;15.29;100.00;99339.50;4989043;28;20203;-79
2023/05/09 02:05:56;;;;;;;17.27;15.30;;;;;;;15.23;100.00;99338.16;4992898;28;20195;-78
2023/05/09 02:08:26;;;;;;;18.60;14.97;;;;;;;15.23;100.00;99329.31;4996471;28;20203;-79
2023/05/09 02:10:55;;;;;;;17.73;15.07;;;;;;;15.21;100.00;99331.25;4993954;28;20187;-78
2023/05/09 02:13:23;;;;;;;17.17;15.47;;;;;;;15.16;100.00;99329.81;4910414;29;20206;-79
2023/05/09 02:15:54;;;;;;;18.03;15.90;;;;;;;15.22;100.00;99327.59;4912658;29;20292;-79
2023/05/09 02:18:25;;;;;;;17.50;15.60;;;;;;;15.13;100.00;99322.03;4912555;29;20249;-78
2023/05/09 02:20:55;;;;;;;16.40;14.73;;;;;;;15.18;100.00;99319.00;4911401;29;20784;-79
2023/05/09 02:23:25;;;;;;;17.70;15.80;;;;;;;15.06;100.00;99318.19;4912681;29;20269;-79
2023/05/09 02:25:55;;;;;;;17.50;15.47;;;;;;;15.15;100.00;99308.56;4912841;29;20714;-78
2023/05/09 02:28:25;;;;;;;16.90;15.10;;;;;;;15.07;100.00;99314.53;4913602;29;20245;-78
2023/05/09 02:30:58;;;;;;;16.93;15.13;;;;;;;15.12;100.00;99316.81;4926788;28;20673;-78
2023/05/09 02:33:29;;;;;;;16.63;14.10;;;;;;;15.18;100.00;99311.00;4987252;28;20197;-78
2023/05/09 02:35:58;;;;;;;16.23;14.40;;;;;;;15.13;100.00;99308.69;4985406;28;20206;-78
2023/05/09 02:38:27;;;;;;;16.07;14.37;;;;;;;15.15;100.00;99306.78;4988554;28;20295;-78
2023/05/09 02:40:56;;;;;;;16.37;14.67;;;;;;;15.17;100.00;99307.50;4989036;28;20203;-79
2023/05/09 02:43:24;;;;;;;17.77;15.10;;;;;;;15.03;100.00;99297.06;4990115;28;20206;-78
2023/05/09 02:45:53;;;;;;;18.43;15.43;;;;;;;15.07;100.00;99289.69;4985677;28;20262;-79
2023/05/09 02:48:21;;;;;;;17.17;15.40;;;;;;;15.11;100.00;99289.31;4933496;29;20296;-79
2023/05/09 02:50:51;;;;;;;17.33;15.30;;;;;;;15.20;100.00;99284.19;4929714;29;20197;-79
2023/05/09 02:53:22;;;;;;;17.50;14.87;;;;;;;15.09;100.00;99285.06;4932031;29;20225;-78
2023/05/09 02:55:52;;;;;;;18.20;15.43;;;;;;;15.00;100.00;99293.81;4932520;29;20249;-79
2023/05/09 02:58:21;;;;;;;18.20;15.53;;;;;;;14.96;100.00;99290.56;4930516;29;20232;-79
2023/05/09 03:00:49;;;;;;;18.90;15.33;;;;;;;14.92;100.00;99291.75;4927884;28;20208;-78
2023/05/09 03:03:17;;;;;;;16.77;15.03;;;;;;;14.95;100.00;99294.16;4929217;29;20205;-78
2023/05/09 03:05:47;;;;;;;17.87;15.30;;;;;;;15.12;100.00;99282.16;4941279;28;20202;-79
2023/05/09 03:08:17;;;;;;;17.60;15.80;;;;;;;14.96;100.00;99274.53;4959186;28;20199;-78
2023/05/09 03:10:48;;;;;;;19.10;16.37;;;;;;;14.96;100.00;99268.34;4986258;28;20198;-78
2023/05/09 03:13:16;;;;;;;18.93;15.00;;;;;;;14.96;100.00;99269.22;4982065;28;20262;-78
2023/05/09 03:15:45;;;;;;;18.63;15.77;;;;;;;14.83;100.00;99272.00;4987052;28;20191;-78
2023/05/09 03:18:13;;;;;;;18.50;15.17;;;;;;;14.83;100.00;99263.13;4983873;28;20343;-79
2023/05/09 03:20:41;;;;;;;16.77;14.70;;;;;;;14.78;100.00;99266.19;4983700;28;20198;-79
2023/05/09 03:23:13;;;;;;;17.47;15.20;;;;;;;14.70;100.00;99273.94;4988528;28;20195;-79
2023/05/09 03:25:43;;;;;;;22.17;14.77;;;;;;;14.80;100.00;99264.25;4987057;28;20214;-78
2023/05/09 03:28:14;;;;;;;17.40;15.70;;;;;;;14.65;100.00;99264.59;4992432;28;20191;-79
2023/05/09 03:30:44;;;;;;;17.40;15.33;;;;;;;14.65;100.00;99262.78;4991597;28;20253;-78
2023/05/09 03:33:12;;;;;;;16.97;15.17;;;;;;;14.67;100.00;99266.19;4992475;28;20274;-78
2023/05/09 03:35:40;;;;;;;16.50;14.70;;;;;;;14.70;100.00;99268.63;4991082;28;20199;-78
2023/05/09 03:38:09;;;;;;;18.30;15.23;;;;;;;14.59;100.00;99273.94;4985904;28;20202;-79
2023/05/09 03:40:37;;;;;;;17.13;13.77;;;;;;;14.39;100.00;99271.97;4984239;28;20199;-78
2023/05/09 03:43:07;;;;;;;19.57;15.17;;;;;;;14.42;100.00;99275.22;4992130;28;20253;-78
2023/05/09 03:45:37;;;;;;;17.70;15.33;;;;;;;14.32;100.00;99274.25;4987893;28;20678;-79
2023/05/09 03:48:08;;;;;;;17.07;14.87;;;;;;;14.37;100.00;99282.72;4990794;28;20274;-78
2023/05/09 03:50:36;;;;;;;18.17;15.07;;;;;;;14.40;100.00;99276.31;4988534;28;20194;-79
2023/05/09 03:53:05;;;;;;;17.10;15.10;;;;;;;14.42;100.00;99285.03;4983662;28;20231;-79
2023/05/09 03:55:35;;;;;;;17.40;14.77;;;;;;;14.52;100.00;99278.06;4988294;28;20203;-79
2023/05/09 03:58:05;;;;;;;16.97;15.17;;;;;;;14.56;100.00;99279.50;4990454;28;20206;-78
2023/05/09 04:00:35;;;;;;;18.13;15.07;;;;;;;14.56;100.00;99279.50;4944528;28;20207;-78
2023/05/09 04:03:04;;;;;;;17.43;14.53;;;;;;;14.54;100.00;99268.97;4990326;28;20206;-78
2023/05/09 04:05:34;;;;;;;19.10;16.10;;;;;;;14.68;100.00;99272.38;4986230;28;20650;-78
2023/05/09 04:08:02;;;;;;;18.60;16.17;;;;;;;14.65;100.00;99264.59;4985552;28;20237;-79
2023/05/09 04:10:31;;;;;;;18.37;14.77;;;;;;;14.67;100.00;99265.31;4989341;28;20198;-78
2023/05/09 04:13:00;;;;;;;19.47;15.53;;;;;;;14.62;100.00;99267.53;4989741;28;20215;-78
2023/05/09 04:15:28;;;;;;;17.23;15.20;;;;;;;14.65;100.00;99257.44;4988201;28;20210;-78
2023/05/09 04:17:58;;;;;;;18.17;15.27;;;;;;;14.74;100.00;99253.22;4986747;28;20188;-78
2023/05/09 04:20:30;;;;;;;18.57;15.20;;;;;;;14.72;100.00;99242.66;4965919;28;20219;-78
2023/05/09 04:22:58;;;;;;;18.83;14.60;;;;;;;14.65;100.00;99248.59;4965632;28;20203;-78
2023/05/09 04:25:28;;;;;;;18.23;16.20;;;;;;;14.75;100.00;99244.22;4968699;28;20204;-79
2023/05/09 04:27:58;;;;;;;18.97;16.17;;;;;;;14.92;100.00;99249.06;4968508;28;20204;-79
2023/05/09 04:30:29;;;;;;;18.90;16.27;;;;;;;14.82;100.00;99246.28;4967274;28;20192;-79
2023/05/09 04:32:59;;;;;;;20.13;17.20;;;;;;;14.77;100.00;99239.66;4966605;28;20311;-79
2023/05/09 04:35:27;;;;;;;18.10;16.07;;;;;;;14.69;100.00;99242.94;4968916;28;20235;-79
2023/05/09 04:37:55;;;;;;;19.10;17.03;;;;;;;14.65;100.00;99237.94;4966794;28;20253;-78
2023/05/09 04:40:23;;;;;;;18.90;15.80;;;;;;;14.67;100.00;99238.66;4988585;28;20202;-79
2023/05/09 04:42:56;;;;;;;18.50;16.50;;;;;;;14.79;100.00;99241.22;4988671;28;20195;-79
2023/05/09 04:45:24;;;;;;;19.10;16.87;;;;;;;14.87;100.00;99252.13;4942232;28;20681;-79
2023/05/09 04:47:53;;;;;;;18.83;16.83;;;;;;;14.91;100.00;99251.88;4985351;28;20196;-79
2023/05/09 04:50:24;;;;;;;17.90;16.03;;;;;;;14.93;100.00;99252.59;4984917;28;20286;-79
2023/05/09 04:52:52;;;;;;;19.43;16.70;;;;;;;14.92;100.00;99248.22;4993681;28;20227;-79
2023/05/09 04:55:20;;;;;;;20.90;17.07;;;;;;;15.05;100.00;99235.59;4986367;28;20287;-79
2023/05/09 04:57:49;;;;;;;20.17;18.07;;;;;;;15.04;100.00;99242.75;4983408;28;20233;-79
2023/05/09 05:00:18;;;;;;;22.30;17.83;;;;;;;15.02;100.00;99241.19;4990670;28;20354;-79
2023/05/09 05:02:46;;;;;;;20.50;18.03;;;;;;;14.97;100.00;99230.03;4988308;28;20239;-79
2023/05/09 05:05:16;;;;;;;19.40;17.13;;;;;;;15.06;100.00;99240.81;4987116;28;20203;-78
2023/05/09 05:07:46;;;;;;;23.63;17.90;;;;;;;15.13;100.00;99228.66;4982962;28;20234;-79
2023/05/09 05:10:14;;;;;;;20.60;17.60;;;;;;;15.08;100.00;99230.88;4988303;28;20254;-79
2023/05/09 05:12:42;;;;;;;22.20;17.67;;;;;;;14.98;100.00;99229.91;4930891;29;20220;-78
2023/05/09 05:15:12;;;;;;;21.10;17.50;;;;;;;15.03;100.00;99219.72;4927690;29;20207;-77
2023/05/09 05:17:42;;;;;;;19.93;16.47;;;;;;;15.06;100.00;99218.63;4933622;29;20205;-77
2023/05/09 05:20:11;;;;;;;19.63;16.83;;;;;;;15.04;100.00;99204.53;4925848;29;20197;-78
2023/05/09 05:22:39;;;;;;;20.43;16.80;;;;;;;14.89;100.00;99201.31;4933411;29;20197;-78
2023/05/09 05:25:10;;;;;;;22.03;17.63;;;;;;;14.91;100.00;99196.72;4928585;29;20205;-78
2023/05/09 05:27:38;;;;;;;20.07;17.90;;;;;;;15.01;100.00;99210.13;4899761;29;20306;-78
2023/05/09 05:30:08;;;;;;;20.83;17.87;;;;;;;14.82;100.00;99200.13;4941372;28;20202;-79
2023/05/09 05:32:36;;;;;;;21.00;17.90;;;;;;;14.92;100.00;99205.56;4993171;28;20207;-79
2023/05/09 05:35:05;;;;;;;21.00;18.70;;;;;;;14.91;100.00;99203.84;4987592;28;20207;-79
2023/05/09 05:37:33;;;;;;;18.70;16.73;;;;;;;14.99;100.00;99194.28;4987624;28;20195;-79
2023/05/09 05:40:02;;;;;;;18.30;16.23;;;;;;;15.08;100.00;99203.34;4993314;28;20191;-79
2023/05/09 05:42:32;;;;;;;15.83;14.10;;;;;;;14.99;100.00;99194.28;4982397;28;20206;-79
2023/05/09 05:45:03;;;;;;;16.63;14.07;;;;;;;15.07;100.00;99193.66;4993194;28;20203;-78
2023/05/09 05:47:32;;;;;;;14.90;13.13;;;;;;;15.11;100.00;99187.06;4988101;28;20195;-79
2023/05/09 05:50:05;;;;;;;17.30;12.57;;;;;;;15.23;100.00;99171.88;4987777;28;20250;-79
2023/05/09 05:52:34;;;;;;;14.13;12.73;;;;;;;15.23;100.00;99170.03;4988909;28;20206;-79
2023/05/09 05:55:02;;;;;;;13.13;11.10;;;;;;;15.36;100.00;99159.22;4988673;28;20281;-79
2023/05/09 05:57:33;;;;;;;12.67;11.37;;;;;;;15.34;100.00;99161.97;4981786;28;20199;-78
2023/05/09 06:00:04;;;;;;;13.93;11.13;;;;;;;15.36;100.00;99154.72;4986517;28;20188;-78
2023/05/09 06:02:33;;;;;;;12.23;10.93;;;;;;;15.40;100.00;99150.81;4990077;28;20223;-79
2023/05/09 06:05:02;;;;;;;13.90;11.27;;;;;;;15.51;100.00;99143.72;4988336;28;20658;-79
2023/05/09 06:07:31;;;;;;;12.13;10.93;;;;;;;15.53;100.00;99147.09;4955201;28;20206;-79
2023/05/09 06:09:59;;;;;;;11.33;10.23;;;;;;;15.48;100.00;99147.50;4983306;28;20207;-79
2023/05/09 06:12:27;;;;;;;12.33;10.40;;;;;;;15.68;100.00;99146.69;4984041;28;20206;-79
2023/05/09 06:14:56;;;;;;;14.57;10.40;;;;;;;15.66;100.00;99147.78;4986223;28;20222;-80
2023/05/09 06:17:25;;;;;;;11.90;10.70;;;;;;;15.76;100.00;99145.19;4989173;28;20199;-78
2023/05/09 06:19:55;;;;;;;13.63;10.53;;;;;;;15.85;100.00;99147.06;4987911;28;20205;-79
2023/05/09 06:22:23;;;;;;;10.67;9.57;;;;;;;15.80;100.00;99138.59;4992444;28;20253;-79
2023/05/09 06:24:52;;;;;;;11.63;10.37;;;;;;;15.95;100.00;99132.78;4990663;28;20203;-79
2023/05/09 06:27:22;;;;;;;11.43;10.00;;;;;;;16.06;100.00;99131.00;4987995;28;20682;-79
2023/05/09 06:29:51;;;;;;;12.40;9.73;;;;;;;16.07;100.00;99130.88;4995751;28;20234;-79
2023/05/09 06:32:21;;;;;;;11.20;9.90;;;;;;;16.16;100.00;99124.72;4995010;28;20255;-79
2023/05/09 06:34:49;;;;;;;10.87;9.47;;;;;;;16.15;100.00;99123.03;4992909;28;20223;-79
2023/05/09 06:37:17;;;;;;;11.50;9.53;;;;;;;16.11;100.00;99126.09;4998810;28;20203;-79
2023/05/09 06:39:46;;;;;;;12.13;10.17;;;;;;;16.15;100.00;99125.72;4993839;28;20298;-78
2023/05/09 06:42:15;;;;;;;12.73;10.03;;;;;;;16.34;100.00;99127.59;4992665;28;20195;-79
2023/05/09 06:44:43;;;;;;;12.97;9.63;;;;;;;16.43;100.00;99131.31;4986790;28;20199;-79
2023/05/09 06:47:12;;;;;;;11.20;10.00;;;;;;;16.37;100.00;99127.31;4989311;28;20662;-78
2023/05/09 06:49:42;;;;;;;10.93;9.83;;;;;;;16.51;100.00;99115.44;4984218;28;20195;-79
2023/05/09 06:52:11;;;;;;;11.63;10.33;;;;;;;16.48;100.00;99118.34;4984266;28;20257;-79
2023/05/09 06:54:39;;;;;;;11.27;10.03;;;;;;;16.83;100.00;99113.41;4986211;28;20219;-78
2023/05/09 06:57:08;;;;;;;12.67;11.23;;;;;;;16.96;100.00;99107.78;4989117;28;20207;-79
2023/05/09 06:59:36;;;;;;;12.13;10.33;;;;;;;16.94;100.00;99112.41;4986953;28;20536;-78
2023/05/09 07:02:04;;;;;;;12.43;11.13;;;;;;;16.69;100.00;99105.75;4942626;28;1368623;-78
2023/05/09 07:04:33;;;;;;;17.63;11.53;;;;;;;16.57;100.00;99107.69;4984260;28;20283;-77
2023/05/09 07:07:02;;;;;;;13.03;11.23;;;;;;;16.53;100.00;99103.59;4992640;28;20257;-78
2023/05/09 07:09:31;;;;;;;13.43;12.00;;;;;;;16.42;100.00;99095.69;4995603;28;20199;-78
2023/05/09 07:12:00;;;;;;;12.60;11.30;;;;;;;16.56;100.00;99097.13;4991596;28;20201;-78
2023/05/09 07:14:28;;;;;;;15.03;11.03;;;;;;;16.53;100.00;99095.59;4991496;28;20246;-78
2023/05/09 07:16:56;;;;;;;13.50;12.20;;;;;;;16.61;100.00;99092.22;4991376;28;20207;-78
2023/05/09 07:19:45;;;;;;;16.50;12.33;;;;;;;16.73;100.00;99093.81;4994224;28;20262;-78
2023/05/09 07:22:14;;;;;;;15.67;12.00;;;;;;;16.81;100.00;99087.78;4991776;28;20203;-78
2023/05/09 07:24:45;;;;;;;15.43;12.43;;;;;;;16.98;100.00;99080.88;4990078;28;20285;-78
2023/05/09 07:27:13;;;;;;;14.30;12.87;;;;;;;16.96;100.00;99083.69;4988919;28;20203;-78
2023/05/09 07:29:41;;;;;;;14.33;12.00;;;;;;;17.00;100.00;99073.56;4990873;28;20209;-78
2023/05/09 07:32:10;;;;;;;18.70;13.23;;;;;;;17.11;100.00;99062.72;4988879;28;20199;-78
2023/05/09 07:34:38;;;;;;;14.00;12.57;;;;;;;17.24;100.00;99063.25;4943258;28;20366;-78
2023/05/09 07:37:07;;;;;;;17.20;12.50;;;;;;;17.43;100.00;99068.56;4989892;28;20258;-78
2023/05/09 07:39:37;;;;;;;16.67;12.87;;;;;;;17.35;100.00;99057.72;4987895;28;20646;-78
2023/05/09 07:42:05;;;;;;;15.20;13.10;;;;;;;17.37;100.00;99057.59;4989925;28;20199;-78
2023/05/09 07:44:33;;;;;;;17.13;13.67;;;;;;;17.35;100.00;99048.84;4987490;28;20203;-78
2023/05/09 07:47:01;;;;;;;14.87;13.37;;;;;;;17.50;100.00;99047.44;4986736;28;20199;-78
2023/05/09 07:49:29;;;;;;;14.90;13.30;;;;;;;17.63;100.00;99050.63;4987671;28;20202;-78
2023/05/09 07:51:57;;;;;;;16.77;13.93;;;;;;;17.65;100.00;99048.63;4989664;28;20724;-78
2023/05/09 07:54:26;;;;;;;14.87;12.87;;;;;;;17.75;100.00;99035.25;4990655;28;20226;-78
2023/05/09 07:56:55;;;;;;;15.20;13.67;;;;;;;17.88;100.00;99041.13;4989084;28;20198;-79
2023/05/09 07:59:23;;;;;;;14.63;13.03;;;;;;;18.08;100.00;99038.38;4988172;28;20199;-78
2023/05/09 08:01:52;;;;;;;15.40;13.80;;;;;;;18.13;100.00;99038.75;4989201;28;20258;-78
2023/05/09 08:04:20;;;;;;;15.50;13.90;;;;;;;18.07;100.00;99034.84;4988236;28;20199;-78
2023/05/09 08:06:49;;;;;;;16.10;13.87;;;;;;;18.16;100.00;99033.94;4989255;28;20203;-78
2023/05/09 08:09:18;;;;;;;17.20;13.20;;;;;;;18.23;100.00;99029.66;4988397;28;20282;-79
2023/05/09 08:11:46;;;;;;;14.13;12.70;;;;;;;18.29;100.00;99026.38;4985964;28;20203;-79
2023/05/09 08:14:16;;;;;;;15.57;13.17;;;;;;;18.13;100.00;99022.66;4985585;28;20662;-79
2023/05/09 08:16:45;;;;;;;17.40;12.60;;;;;;;18.14;100.00;99011.78;4988095;28;20253;-79
2023/05/09 08:19:14;;;;;;;13.53;11.87;;;;;;;18.32;100.00;99009.16;4990724;28;20198;-79
2023/05/09 08:21:42;;;;;;;14.60;13.10;;;;;;;18.28;100.00;99002.41;4989028;28;20269;-79
2023/05/09 08:24:10;;;;;;;15.57;13.80;;;;;;;18.22;100.00;99001.16;4989010;28;20242;-79
2023/05/09 08:26:38;;;;;;;15.37;13.50;;;;;;;18.36;100.00;99010.53;4990363;28;20199;-80
2023/05/09 08:29:07;;;;;;;15.50;13.20;;;;;;;18.43;100.00;98994.66;4991361;28;20194;-79
2023/05/09 08:31:36;;;;;;;15.33;13.77;;;;;;;18.60;100.00;99001.88;4985137;28;20199;-79
2023/05/09 08:34:05;;;;;;;15.83;13.07;;;;;;;18.40;100.00;98994.97;4989583;28;20207;-78
2023/05/09 08:36:33;;;;;;;14.37;12.87;;;;;;;18.27;100.00;98998.03;4983879;28;20219;-79
2023/05/09 08:39:02;;;;;;;15.07;12.53;;;;;;;18.57;100.00;98991.47;4987332;28;20206;-79
2023/05/09 08:41:34;;;;;;;15.60;12.90;;;;;;;18.48;100.00;98990.56;4991322;28;20238;-80
2023/05/09 08:44:03;;;;;;;16.53;12.13;;;;;;;18.46;100.00;98992.53;4988708;28;20261;-79
2023/05/09 08:46:36;;;;;;;13.47;11.80;;;;;;;18.67;100.00;98983.38;4993958;28;20195;-79
2023/05/09 08:49:07;;;;;;;13.70;12.30;;;;;;;18.64;100.00;98973.78;4993743;28;20203;-79
2023/05/09 08:51:36;;;;;;;15.93;13.50;;;;;;;18.92;100.00;98977.25;4992496;28;20206;-78
2023/05/09 08:54:05;;;;;;;15.47;13.17;;;;;;;18.81;100.00;98967.56;4988773;28;20203;-79
2023/05/09 08:56:35;;;;;;;13.17;11.77;;;;;;;18.99;100.00;98974.75;4991069;28;20262;-79
2023/05/09 08:59:05;;;;;;;15.90;14.13;;;;;;;19.08;100.00;98973.81;4986133;28;20659;-79
2023/05/09 09:01:35;;;;;;;16.43;13.33;;;;;;;18.99;100.00;98972.06;4989897;28;20591;-79
2023/05/09 09:04:10;;;;;;;18.47;13.10;;;;;;;18.96;100.00;98964.34;4987741;28;20302;-79
2023/05/09 09:06:40;;;;;;;15.90;13.67;;;;;;;19.07;100.00;98961.38;4989017;28;20199;-78
2023/05/09 09:09:09;;;;;;;15.93;14.23;;;;;;;18.91;100.00;98961.25;4992084;28;20198;-79
2023/05/09 09:11:38;;;;;;;15.23;13.27;;;;;;;18.94;100.00;98971.72;4988673;28;20254;-79
2023/05/09 09:14:12;;;;;;;16.37;14.17;;;;;;;18.96;100.00;98956.28;4988988;28;20222;-79
2023/05/09 09:16:43;;;;;;;17.37;14.60;;;;;;;18.74;100.00;98960.31;4985657;28;20223;-79
2023/05/09 09:19:17;;;;;;;18.90;14.33;;;;;;;18.65;100.00;98951.34;4990737;28;20199;-79
2023/05/09 09:21:47;;;;;;;16.83;14.30;;;;;;;18.62;100.00;98950.75;4993351;28;20194;-79
2023/05/09 09:24:21;;;;;;;17.53;14.60;;;;;;;18.62;100.00;98948.06;4973323;28;20207;-79
2023/05/09 09:26:52;;;;;;;15.67;14.03;;;;;;;18.70;100.00;98945.50;4983698;28;20202;-79
2023/05/09 09:29:21;;;;;;;19.10;14.30;;;;;;;18.68;100.00;98937.59;4984715;28;20206;-79
2023/05/09 09:31:54;;;;;;;17.27;14.30;;;;;;;18.64;100.00;98948.78;4987837;28;20203;-79
2023/05/09 09:34:25;;;;;;;16.67;14.03;;;;;;;18.68;100.00;98934.94;4988826;28;20203;-79
2023/05/09 09:36:53;;;;;;;16.57;14.80;;;;;;;18.53;100.00;98936.47;4988267;28;20215;-79
2023/05/09 09:39:22;;;;;;;17.50;13.80;;;;;;;18.60;100.00;98937.50;4981526;28;20269;-79
2023/05/09 09:41:50;;;;;;;15.17;13.57;;;;;;;18.63;100.00;98931.00;4987800;28;20203;-80
2023/05/09 09:44:23;;;;;;;14.53;13.03;;;;;;;18.86;100.00;98924.16;4990621;28;20203;-79
2023/05/09 09:46:52;;;;;;;16.20;14.00;;;;;;;18.74;100.00;98920.06;4986394;28;20265;-80
2023/05/09 09:49:22;;;;;;;16.57;13.47;;;;;;;18.78;100.00;98924.09;4988383;28;20230;-79
2023/05/09 09:51:52;;;;;;;14.37;12.87;;;;;;;18.90;100.00;98914.78;4989476;28;20257;-79
2023/05/09 09:54:22;;;;;;;18.97;14.27;;;;;;;18.84;100.00;98918.97;4993184;28;20206;-79
2023/05/09 09:56:53;;;;;;;17.67;14.17;;;;;;;18.79;100.00;98915.88;4990395;28;20269;-80
2023/05/09 09:59:24;;;;;;;14.87;13.37;;;;;;;18.98;100.00;98903.28;4987610;28;20202;-79
2023/05/09 10:01:57;;;;;;;15.63;14.03;;;;;;;18.95;100.00;98899.06;4984077;28;20242;-79
2023/05/09 10:04:28;;;;;;;18.00;14.10;;;;;;;19.08;100.00;98898.63;4988961;28;20195;-79
2023/05/09 10:06:59;;;;;;;16.50;13.43;;;;;;;19.31;100.00;98898.94;4996658;28;20195;-79
2023/05/09 10:09:30;;;;;;;16.20;13.17;;;;;;;19.52;100.00;98890.47;4994261;28;20249;-79
2023/05/09 10:12:02;;;;;;;16.60;14.80;;;;;;;19.60;100.00;98895.94;4988881;28;20191;-79
2023/05/09 10:14:33;;;;;;;16.47;14.20;;;;;;;19.65;100.00;98880.16;4990345;28;20202;-79
2023/05/09 10:17:03;;;;;;;15.57;13.90;;;;;;;19.54;100.00;98881.25;4996748;28;20261;-80
2023/05/09 10:19:33;;;;;;;14.33;12.90;;;;;;;19.57;100.00;98872.03;4995686;28;20215;-80
2023/05/09 10:22:06;;;;;;;15.57;13.77;;;;;;;19.45;100.00;98871.47;4993837;28;20199;-79
2023/05/09 10:24:35;;;;;;;15.63;14.03;;;;;;;19.17;100.00;98878.88;4993789;28;20222;-79
2023/05/09 10:27:06;;;;;;;14.77;12.80;;;;;;;19.50;100.00;98874.53;4988635;28;20226;-80
2023/05/09 10:29:41;;;;;;;14.03;12.53;;;;;;;19.77;100.00;98872.63;4986300;28;20601;-79
2023/05/09 10:32:16;;;;;;;16.93;12.60;;;;;;;19.80;100.00;98859.72;4991848;28;20206;-79
2023/05/09 10:34:48;;;;;;;15.10;13.03;;;;;;;19.84;100.00;98860.22;4988827;28;20206;-79
2023/05/09 10:37:18;;;;;;;14.50;12.97;;;;;;;19.92;100.00;98841.41;4996393;28;20226;-79
2023/05/09 10:39:51;;;;;;;14.07;12.53;;;;;;;20.08;100.00;98852.19;4992450;28;20205;-80
2023/05/09 10:42:21;;;;;;;17.13;12.80;;;;;;;19.80;100.00;98850.81;4993687;28;20210;-79
2023/05/09 10:44:50;;;;;;;14.77;12.77;;;;;;;20.11;100.00;98846.47;4990657;28;20199;-80
2023/05/09 10:47:19;;;;;;;15.73;12.10;;;;;;;19.99;100.00;98843.28;4989177;28;20286;-79
2023/05/09 10:49:49;;;;;;;14.53;12.00;;;;;;;19.99;100.00;98832.53;4991920;28;20214;-79
2023/05/09 10:52:21;;;;;;;13.57;12.17;;;;;;;20.14;100.00;98829.16;4987599;28;20265;-78
2023/05/09 10:54:59;;;;;;;13.87;12.43;;;;;;;20.29;100.00;98824.81;4962155;28;20195;-79
2023/05/09 10:57:29;;;;;;;15.07;12.63;;;;;;;20.20;100.00;98815.91;4989205;28;20249;-79
2023/05/09 10:59:59;;;;;;;12.27;10.97;;;;;;;20.37;100.00;98814.06;4991405;28;20191;-79
2023/05/09 11:02:31;;;;;;;15.10;12.60;;;;;;;20.31;100.00;98814.72;4990945;28;20234;-78
2023/05/09 11:05:16;;;;;;;13.90;12.03;;;;;;;20.11;100.00;98805.31;4988124;28;20191;-80
2023/05/09 11:07:46;;;;;;;16.47;13.00;;;;;;;19.94;100.00;98805.28;4990620;28;20729;-79
2023/05/09 11:10:17;;;;;;;14.57;12.73;;;;;;;20.07;100.00;98794.03;4977490;28;20191;-79
2023/05/09 11:12:58;;;;;;;15.27;12.77;;;;;;;20.05;100.00;98797.91;4986128;28;20210;-79
2023/05/09 11:15:27;;;;;;;15.10;13.53;;;;;;;19.91;100.00;98802.09;4992916;28;20202;-79
2023/05/09 11:18:06;;;;;;;15.50;13.57;;;;;;;19.89;100.00;98799.59;4984101;28;20270;-79
2023/05/09 11:20:36;;;;;;;17.17;13.60;;;;;;;19.92;100.00;98801.94;4994485;28;20210;-79